Time;durP1;ratioP1;P1;durP2;ratioP2;P2;SDS_P1;SDS_P2;PMS_P1;PMS_P2;Temp;Humidity;BMP_temperature;BMP_pressure;BME280_temperature;BME280_humidity;BME280_pressure;Samples;Min_cycle;Max_cycle;Signal;HPM_P1;HPM_P2
2023/03/02 00:01:30;;;;;;;31.40;16.57;;;;;;;;;;5100622;28;20299;-86
2023/03/02 00:03:58;;;;;;;31.87;17.47;;;;;;;;;;5074499;28;20284;-85
2023/03/02 00:06:25;;;;;;;31.47;16.93;;;;;;;;;;5077494;28;20219;-86
2023/03/02 00:08:52;;;;;;;32.63;16.77;;;;;;;;;;5082656;28;20301;-86
2023/03/02 00:11:20;;;;;;;33.03;17.03;;;;;;;;;;5081444;28;20212;-86
2023/03/02 00:13:47;;;;;;;30.97;16.93;;;;;;;;;;5089806;28;20285;-86
2023/03/02 00:16:15;;;;;;;30.63;16.50;;;;;;;;;;5088705;28;20204;-85
2023/03/02 00:18:42;;;;;;;33.20;18.03;;;;;;;;;;5085963;28;20206;-86
2023/03/02 00:21:10;;;;;;;34.50;18.03;;;;;;;;;;5084404;28;20211;-85
2023/03/02 00:23:37;;;;;;;28.73;16.33;;;;;;;;;;5076538;28;20201;-85
2023/03/02 00:26:04;;;;;;;32.30;17.53;;;;;;;;;;5078240;28;20216;-85
2023/03/02 00:28:31;;;;;;;34.23;17.70;;;;;;;;;;5085857;28;20247;-86
2023/03/02 00:30:57;;;;;;;30.17;17.03;;;;;;;;;;5078626;28;20223;-86
2023/03/02 00:33:26;;;;;;;35.77;18.17;;;;;;;;;;5087133;28;20262;-86
2023/03/02 00:35:52;;;;;;;34.90;19.00;;;;;;;;;;5081996;28;20204;-86
2023/03/02 00:38:19;;;;;;;36.80;18.80;;;;;;;;;;5085542;28;20284;-85
2023/03/02 00:40:46;;;;;;;32.80;18.10;;;;;;;;;;5085277;28;20214;-86
2023/03/02 00:43:13;;;;;;;33.17;18.10;;;;;;;;;;5078333;28;20205;-85
2023/03/02 00:45:40;;;;;;;36.53;19.43;;;;;;;;;;5089705;28;20227;-86
2023/03/02 00:48:07;;;;;;;31.90;17.73;;;;;;;;;;5090989;28;20237;-85
2023/03/02 00:50:39;;;;;;;67.83;35.50;;;;;;;;;;5087824;28;20226;-86
2023/03/02 00:53:06;;;;;;;31.23;16.77;;;;;;;;;;5078447;28;20223;-85
2023/03/02 00:55:33;;;;;;;34.27;17.87;;;;;;;;;;5076634;28;20199;-85
2023/03/02 00:58:00;;;;;;;32.53;17.17;;;;;;;;;;5084505;28;20199;-85
2023/03/02 01:00:29;;;;;;;33.70;17.97;;;;;;;;;;5085687;28;20207;-86
2023/03/02 01:03:00;;;;;;;32.33;17.70;;;;;;;;;;5072850;28;20282;-86
2023/03/02 01:05:27;;;;;;;32.53;16.70;;;;;;;;;;5087582;28;20207;-85
2023/03/02 01:07:55;;;;;;;29.67;16.20;;;;;;;;;;5085347;28;20204;-86
2023/03/02 01:10:22;;;;;;;30.40;16.03;;;;;;;;;;5086996;28;20207;-85
2023/03/02 01:12:49;;;;;;;35.13;18.07;;;;;;;;;;5084421;28;20211;-86
2023/03/02 01:15:16;;;;;;;32.20;17.50;;;;;;;;;;5087492;28;20239;-85
2023/03/02 01:17:42;;;;;;;32.23;16.83;;;;;;;;;;5102353;28;20211;-85
2023/03/02 01:20:10;;;;;;;38.40;18.60;;;;;;;;;;5087259;28;20204;-86
2023/03/02 01:22:37;;;;;;;37.97;18.90;;;;;;;;;;5089829;28;20196;-86
2023/03/02 01:25:05;;;;;;;33.70;16.80;;;;;;;;;;5088322;28;20292;-85
2023/03/02 01:27:32;;;;;;;34.20;17.77;;;;;;;;;;5087905;28;20298;-86
2023/03/02 01:29:59;;;;;;;35.33;18.53;;;;;;;;;;5084937;28;20317;-85
2023/03/02 01:32:26;;;;;;;32.33;17.27;;;;;;;;;;5086231;28;20206;-86
2023/03/02 01:34:52;;;;;;;33.47;18.03;;;;;;;;;;5105264;28;20228;-86
2023/03/02 01:37:21;;;;;;;33.27;17.90;;;;;;;;;;5081147;28;20203;-86
2023/03/02 01:39:48;;;;;;;34.33;18.23;;;;;;;;;;5097428;28;20236;-86
2023/03/02 01:42:16;;;;;;;34.43;18.10;;;;;;;;;;5103417;28;20200;-85
2023/03/02 01:44:45;;;;;;;34.20;18.53;;;;;;;;;;5087315;28;20232;-85
2023/03/02 01:47:14;;;;;;;33.80;18.83;;;;;;;;;;5085819;28;20207;-86
2023/03/02 01:49:51;;;;;;;32.53;17.83;;;;;;;;;;5079908;28;20248;-86
2023/03/02 01:52:18;;;;;;;32.67;17.83;;;;;;;;;;5103095;28;20208;-87
2023/03/02 01:54:48;;;;;;;32.83;18.23;;;;;;;;;;5089926;28;20232;-86
2023/03/02 01:57:20;;;;;;;32.43;17.27;;;;;;;;;;5087932;28;20217;-86
2023/03/02 01:59:47;;;;;;;85.30;40.90;;;;;;;;;;5102293;28;20202;-86
2023/03/02 02:02:14;;;;;;;38.33;18.33;;;;;;;;;;5088169;28;20295;-86
2023/03/02 02:04:42;;;;;;;33.43;17.60;;;;;;;;;;5087403;28;20207;-85
2023/03/02 02:07:09;;;;;;;32.10;18.00;;;;;;;;;;5083595;28;20297;-86
2023/03/02 02:09:38;;;;;;;36.83;18.97;;;;;;;;;;5101796;28;20226;-86
2023/03/02 02:12:05;;;;;;;37.27;18.03;;;;;;;;;;5085126;28;20193;-86
2023/03/02 02:14:33;;;;;;;34.00;17.80;;;;;;;;;;5085672;28;20220;-85
2023/03/02 02:17:00;;;;;;;33.47;17.67;;;;;;;;;;5087393;28;20210;-86
2023/03/02 02:19:33;;;;;;;31.70;17.70;;;;;;;;;;5086317;28;20278;-86
2023/03/02 02:22:01;;;;;;;34.20;18.27;;;;;;;;;;5085791;28;20203;-87
2023/03/02 02:24:30;;;;;;;37.87;18.60;;;;;;;;;;5083866;28;20204;-86
2023/03/02 02:26:59;;;;;;;35.10;17.97;;;;;;;;;;5097828;28;20208;-86
2023/03/02 02:29:26;;;;;;;33.60;17.80;;;;;;;;;;5089615;28;20225;-86
2023/03/02 02:31:56;;;;;;;36.13;19.37;;;;;;;;;;5088739;28;20219;-86
2023/03/02 02:34:30;;;;;;;35.30;18.40;;;;;;;;;;5088017;28;20209;-86
2023/03/02 02:36:59;;;;;;;36.63;19.43;;;;;;;;;;5100802;28;20217;-86
2023/03/02 02:39:28;;;;;;;34.93;18.30;;;;;;;;;;5102915;28;20221;-86
2023/03/02 02:41:57;;;;;;;34.90;18.37;;;;;;;;;;5090767;28;20257;-86
2023/03/02 02:44:26;;;;;;;36.23;19.80;;;;;;;;;;5090445;28;20229;-85
2023/03/02 02:46:54;;;;;;;36.77;18.73;;;;;;;;;;5092049;28;20207;-86
2023/03/02 02:49:36;;;;;;;36.63;17.50;;;;;;;;;;5080152;28;20403;-86
2023/03/02 02:52:05;;;;;;;36.30;17.77;;;;;;;;;;5083997;28;20208;-85
2023/03/02 02:54:32;;;;;;;34.83;17.63;;;;;;;;;;5090442;28;20216;-86
2023/03/02 02:57:02;;;;;;;37.93;19.10;;;;;;;;;;5076375;28;20208;-86
2023/03/02 02:59:32;;;;;;;35.20;19.00;;;;;;;;;;5085600;28;20199;-86
2023/03/02 03:02:00;;;;;;;35.50;18.93;;;;;;;;;;5088433;28;20203;-86
2023/03/02 03:04:29;;;;;;;40.07;18.27;;;;;;;;;;5085787;28;20266;-86
2023/03/02 03:06:57;;;;;;;35.30;19.30;;;;;;;;;;5076939;28;20206;-85
2023/03/02 03:09:24;;;;;;;37.57;17.83;;;;;;;;;;5091943;28;20216;-85
2023/03/02 03:11:52;;;;;;;35.37;18.80;;;;;;;;;;5088598;28;20209;-86
2023/03/02 03:14:21;;;;;;;35.37;17.13;;;;;;;;;;5087164;28;20222;-86
2023/03/02 03:16:51;;;;;;;33.77;17.57;;;;;;;;;;5084108;28;20221;-86
2023/03/02 03:19:20;;;;;;;35.73;18.50;;;;;;;;;;5091590;28;20208;-86
2023/03/02 03:21:48;;;;;;;35.83;18.47;;;;;;;;;;5090524;28;20282;-86
2023/03/02 03:24:15;;;;;;;38.13;18.57;;;;;;;;;;5090548;28;20263;-86
2023/03/02 03:26:42;;;;;;;36.23;18.60;;;;;;;;;;5088498;28;20362;-86
2023/03/02 03:29:10;;;;;;;37.77;18.13;;;;;;;;;;5107198;28;20248;-86
2023/03/02 03:31:37;;;;;;;37.87;19.70;;;;;;;;;;5086188;28;20255;-85
2023/03/02 03:34:06;;;;;;;35.83;17.97;;;;;;;;;;5081944;28;20213;-86
2023/03/02 03:36:36;;;;;;;34.30;17.33;;;;;;;;;;5088761;28;20204;-86
2023/03/02 03:39:04;;;;;;;32.03;16.80;;;;;;;;;;5090693;28;20208;-85
2023/03/02 03:41:31;;;;;;;38.00;19.07;;;;;;;;;;5095975;28;20251;-86
2023/03/02 03:43:59;;;;;;;37.30;19.30;;;;;;;;;;5076019;28;20226;-86
2023/03/02 03:46:28;;;;;;;37.17;19.87;;;;;;;;;;5086071;28;20235;-86
2023/03/02 03:48:55;;;;;;;37.17;19.37;;;;;;;;;;5090406;28;20201;-85
2023/03/02 03:51:24;;;;;;;36.43;17.97;;;;;;;;;;5066813;28;20205;-85
2023/03/02 03:53:58;;;;;;;36.63;18.37;;;;;;;;;;5082664;28;20208;-85
2023/03/02 03:56:28;;;;;;;35.73;19.33;;;;;;;;;;5080443;28;20292;-86
2023/03/02 03:59:05;;;;;;;32.90;17.80;;;;;;;;;;5085640;28;20260;-86
2023/03/02 04:01:33;;;;;;;37.40;19.47;;;;;;;;;;5087243;28;20206;-85
2023/03/02 04:04:00;;;;;;;37.53;18.83;;;;;;;;;;5093037;28;20201;-86
2023/03/02 04:06:29;;;;;;;37.17;18.63;;;;;;;;;;5082769;28;20208;-87
2023/03/02 04:08:56;;;;;;;34.83;18.80;;;;;;;;;;5082002;28;20213;-86
2023/03/02 04:11:23;;;;;;;37.43;19.43;;;;;;;;;;5097396;28;20305;-86
2023/03/02 04:13:50;;;;;;;39.00;19.43;;;;;;;;;;5088805;28;20275;-86
2023/03/02 04:16:18;;;;;;;35.57;18.70;;;;;;;;;;5088478;28;20207;-86
2023/03/02 04:18:45;;;;;;;36.00;17.90;;;;;;;;;;5084122;28;20215;-85
2023/03/02 04:21:12;;;;;;;35.93;19.43;;;;;;;;;;5103896;27;20352;-85
2023/03/02 04:23:40;;;;;;;35.73;19.27;;;;;;;;;;5086845;28;20207;-85
2023/03/02 04:26:07;;;;;;;36.43;18.40;;;;;;;;;;5103573;28;20231;-85
2023/03/02 04:28:34;;;;;;;38.77;19.47;;;;;;;;;;5089954;28;20291;-86
2023/03/02 04:31:01;;;;;;;36.13;18.20;;;;;;;;;;5088939;28;20223;-85
2023/03/02 04:33:28;;;;;;;33.97;18.37;;;;;;;;;;5084447;28;20203;-85
2023/03/02 04:35:55;;;;;;;34.73;18.73;;;;;;;;;;5110306;27;20236;-86
2023/03/02 04:38:22;;;;;;;39.90;19.20;;;;;;;;;;5090984;28;20201;-85
2023/03/02 04:40:50;;;;;;;36.07;18.43;;;;;;;;;;5104483;27;20203;-86
2023/03/02 04:43:17;;;;;;;40.83;19.73;;;;;;;;;;5083670;28;20212;-86
2023/03/02 04:45:44;;;;;;;36.93;18.73;;;;;;;;;;5080109;28;20268;-85
2023/03/02 04:48:10;;;;;;;40.73;19.97;;;;;;;;;;5084575;28;20203;-86
2023/03/02 04:50:37;;;;;;;35.30;19.10;;;;;;;;;;5088162;28;20228;-85
2023/03/02 04:53:04;;;;;;;40.83;20.73;;;;;;;;;;5087633;28;20203;-85
2023/03/02 04:55:31;;;;;;;38.63;20.00;;;;;;;;;;5084227;28;20192;-85
2023/03/02 04:57:59;;;;;;;33.87;18.67;;;;;;;;;;5080129;28;20206;-85
2023/03/02 05:00:27;;;;;;;36.23;19.50;;;;;;;;;;5084965;28;20208;-85
2023/03/02 05:02:54;;;;;;;40.57;20.53;;;;;;;;;;5104340;27;20278;-85
2023/03/02 05:05:22;;;;;;;43.37;19.57;;;;;;;;;;5087345;28;20206;-85
2023/03/02 05:07:49;;;;;;;39.00;20.80;;;;;;;;;;5088195;28;20205;-85
2023/03/02 05:10:17;;;;;;;38.47;20.67;;;;;;;;;;5087537;28;20216;-85
2023/03/02 05:12:56;;;;;;;37.77;19.83;;;;;;;;;;5085268;28;20209;-85
2023/03/02 05:15:25;;;;;;;46.60;21.33;;;;;;;;;;5097237;28;20258;-85
2023/03/02 05:17:52;;;;;;;40.20;20.57;;;;;;;;;;5090212;28;20196;-85
2023/03/02 05:20:19;;;;;;;39.53;19.83;;;;;;;;;;5083722;28;20232;-85
2023/03/02 05:22:46;;;;;;;44.00;20.97;;;;;;;;;;5087901;28;20216;-85
2023/03/02 05:25:13;;;;;;;43.07;19.93;;;;;;;;;;5086659;28;20204;-85
2023/03/02 05:27:39;;;;;;;40.53;20.30;;;;;;;;;;5092680;28;20304;-85
2023/03/02 05:30:07;;;;;;;42.67;20.37;;;;;;;;;;5085333;28;20213;-85
2023/03/02 05:32:35;;;;;;;40.67;20.03;;;;;;;;;;5084063;28;20209;-86
2023/03/02 05:35:02;;;;;;;39.30;19.53;;;;;;;;;;5083069;28;20263;-86
2023/03/02 05:37:28;;;;;;;40.30;19.83;;;;;;;;;;5089845;28;20218;-85
2023/03/02 05:39:55;;;;;;;40.90;20.73;;;;;;;;;;5101992;28;20203;-86
2023/03/02 05:42:22;;;;;;;43.33;21.97;;;;;;;;;;5086878;28;20204;-85
2023/03/02 05:44:49;;;;;;;38.43;20.97;;;;;;;;;;5087372;28;20233;-85
2023/03/02 05:47:15;;;;;;;40.73;20.17;;;;;;;;;;5090020;28;20211;-86
2023/03/02 05:49:43;;;;;;;37.40;20.00;;;;;;;;;;5105295;27;20227;-85
2023/03/02 05:52:10;;;;;;;44.30;20.83;;;;;;;;;;5097437;28;20208;-85
2023/03/02 05:54:37;;;;;;;39.13;20.93;;;;;;;;;;5102214;27;20228;-85
2023/03/02 05:57:04;;;;;;;45.07;20.07;;;;;;;;;;5091279;28;20205;-85
2023/03/02 05:59:30;;;;;;;41.07;21.50;;;;;;;;;;5089628;28;20262;-85
2023/03/02 06:01:57;;;;;;;43.53;21.40;;;;;;;;;;5083822;28;20300;-85
2023/03/02 06:04:24;;;;;;;39.73;20.63;;;;;;;;;;5089794;28;20209;-85
2023/03/02 06:06:52;;;;;;;39.57;19.87;;;;;;;;;;5090169;28;20221;-86
2023/03/02 06:09:19;;;;;;;40.77;19.20;;;;;;;;;;5090983;28;20266;-85
2023/03/02 06:11:45;;;;;;;47.00;20.73;;;;;;;;;;5087715;28;20228;-86
2023/03/02 06:14:12;;;;;;;36.80;19.27;;;;;;;;;;5107455;27;20242;-86
2023/03/02 06:16:39;;;;;;;37.00;19.97;;;;;;;;;;5097411;28;20194;-85
2023/03/02 06:19:06;;;;;;;40.60;20.07;;;;;;;;;;5091538;28;20196;-86
2023/03/02 06:21:35;;;;;;;37.27;19.87;;;;;;;;;;5089531;28;20189;-85
2023/03/02 06:24:04;;;;;;;39.47;20.50;;;;;;;;;;5084863;28;20201;-85
2023/03/02 06:26:30;;;;;;;42.23;20.93;;;;;;;;;;5090169;28;20276;-85
2023/03/02 06:28:57;;;;;;;39.47;20.20;;;;;;;;;;5091176;28;20814;-85
2023/03/02 06:31:25;;;;;;;41.63;20.67;;;;;;;;;;5084025;28;20233;-85
2023/03/02 06:33:51;;;;;;;37.90;20.43;;;;;;;;;;5088679;28;20294;-86
2023/03/02 06:36:18;;;;;;;42.20;20.63;;;;;;;;;;5085007;28;20201;-85
2023/03/02 06:38:45;;;;;;;39.63;20.13;;;;;;;;;;5085894;28;20239;-85
2023/03/02 06:41:13;;;;;;;42.10;20.47;;;;;;;;;;5081689;28;20191;-85
2023/03/02 06:43:40;;;;;;;40.33;20.77;;;;;;;;;;5088735;28;20216;-85
2023/03/02 06:46:06;;;;;;;39.57;20.67;;;;;;;;;;5090226;28;20203;-85
2023/03/02 06:48:33;;;;;;;43.30;21.10;;;;;;;;;;5092166;28;20209;-85
2023/03/02 06:51:00;;;;;;;38.27;20.17;;;;;;;;;;5093724;28;20223;-85
2023/03/02 06:53:27;;;;;;;38.73;20.80;;;;;;;;;;5095519;27;20244;-84
2023/03/02 06:55:53;;;;;;;40.77;21.37;;;;;;;;;;5085839;28;20211;-85
2023/03/02 06:58:21;;;;;;;50.13;25.33;;;;;;;;;;5087827;28;20234;-85
2023/03/02 07:00:48;;;;;;;42.60;21.97;;;;;;;;;;5082400;28;20194;-85
2023/03/02 07:03:16;;;;;;;46.77;22.10;;;;;;;;;;5078854;28;20208;-85
2023/03/02 07:05:42;;;;;;;41.70;21.20;;;;;;;;;;5082226;28;20230;-85
2023/03/02 07:08:09;;;;;;;44.80;22.10;;;;;;;;;;5100061;27;20202;-85
2023/03/02 07:10:36;;;;;;;44.87;22.00;;;;;;;;;;5080865;28;20223;-85
2023/03/02 07:13:03;;;;;;;46.07;22.87;;;;;;;;;;5082567;28;20209;-85
2023/03/02 07:15:31;;;;;;;44.90;22.10;;;;;;;;;;5078914;28;20205;-85
2023/03/02 07:18:01;;;;;;;44.47;23.13;;;;;;;;;;5097565;28;20209;-85
2023/03/02 07:20:28;;;;;;;43.97;23.17;;;;;;;;;;5081859;28;20415;-85
2023/03/02 07:22:54;;;;;;;42.57;21.50;;;;;;;;;;5105802;27;20244;-85
2023/03/02 07:25:21;;;;;;;42.93;22.23;;;;;;;;;;5084430;28;20243;-85
2023/03/02 07:27:48;;;;;;;44.37;22.47;;;;;;;;;;5087667;28;20213;-85
2023/03/02 07:30:17;;;;;;;43.93;21.70;;;;;;;;;;5092213;28;20203;-85
2023/03/02 07:32:45;;;;;;;42.67;22.27;;;;;;;;;;5081900;28;20230;-85
2023/03/02 07:35:12;;;;;;;43.47;22.47;;;;;;;;;;5087644;28;20235;-85
2023/03/02 07:37:39;;;;;;;41.63;22.00;;;;;;;;;;5087852;28;20231;-85
2023/03/02 07:40:07;;;;;;;41.10;21.63;;;;;;;;;;5087066;28;20214;-85
2023/03/02 07:42:34;;;;;;;48.90;25.13;;;;;;;;;;5084920;28;20229;-85
2023/03/02 07:45:03;;;;;;;44.10;23.23;;;;;;;;;;5086920;28;20256;-85
2023/03/02 07:47:29;;;;;;;50.23;22.80;;;;;;;;;;5082374;28;20238;-85
2023/03/02 07:49:58;;;;;;;45.40;23.37;;;;;;;;;;5100765;28;20201;-85
2023/03/02 07:52:24;;;;;;;43.70;22.33;;;;;;;;;;5085150;28;20218;-85
2023/03/02 07:54:53;;;;;;;46.90;23.53;;;;;;;;;;5087044;28;20212;-86
2023/03/02 07:57:20;;;;;;;44.90;22.87;;;;;;;;;;5088745;28;20198;-85
2023/03/02 07:59:47;;;;;;;47.80;23.33;;;;;;;;;;5082558;28;20201;-86
2023/03/02 08:02:15;;;;;;;45.93;23.30;;;;;;;;;;5085412;28;20197;-85
2023/03/02 08:04:42;;;;;;;195.70;107.60;;;;;;;;;;5103229;27;20213;-86
2023/03/02 08:07:10;;;;;;;49.27;22.10;;;;;;;;;;5084696;28;20227;-86
2023/03/02 08:09:38;;;;;;;38.70;21.17;;;;;;;;;;5090832;28;20201;-86
2023/03/02 08:12:04;;;;;;;42.00;21.93;;;;;;;;;;5087144;28;20236;-85
2023/03/02 08:14:31;;;;;;;43.53;22.70;;;;;;;;;;5086430;28;20231;-85
2023/03/02 08:16:58;;;;;;;43.90;22.53;;;;;;;;;;5087046;28;20198;-86
2023/03/02 08:19:25;;;;;;;45.90;22.43;;;;;;;;;;5087462;28;20207;-86
2023/03/02 08:21:52;;;;;;;48.00;24.07;;;;;;;;;;5081212;28;20191;-86
2023/03/02 08:24:20;;;;;;;48.60;23.63;;;;;;;;;;5085676;28;20208;-86
2023/03/02 08:26:47;;;;;;;45.27;22.53;;;;;;;;;;5087013;28;20204;-86
2023/03/02 08:29:13;;;;;;;39.47;21.67;;;;;;;;;;5099853;28;20324;-85
2023/03/02 08:31:40;;;;;;;46.53;24.17;;;;;;;;;;5086613;28;20238;-86
2023/03/02 08:34:07;;;;;;;45.17;22.20;;;;;;;;;;5086495;28;20209;-86
2023/03/02 08:36:34;;;;;;;43.50;22.57;;;;;;;;;;5103898;28;20204;-85
2023/03/02 08:39:00;;;;;;;41.70;21.83;;;;;;;;;;5088401;28;20208;-86
2023/03/02 08:41:29;;;;;;;48.20;23.47;;;;;;;;;;5091094;28;20211;-86
2023/03/02 08:43:56;;;;;;;53.13;23.23;;;;;;;;;;5083780;28;20240;-85
2023/03/02 08:46:22;;;;;;;48.70;24.40;;;;;;;;;;5081821;28;20206;-85
2023/03/02 08:48:50;;;;;;;51.13;23.87;;;;;;;;;;5101006;28;20252;-85
2023/03/02 08:51:17;;;;;;;42.77;22.07;;;;;;;;;;5082185;28;20224;-85
2023/03/02 08:53:46;;;;;;;44.17;23.07;;;;;;;;;;5081566;28;20216;-85
2023/03/02 08:56:17;;;;;;;44.47;24.17;;;;;;;;;;5097080;28;20197;-85
2023/03/02 08:58:45;;;;;;;51.13;23.63;;;;;;;;;;5095429;28;20208;-88
2023/03/02 09:01:15;;;;;;;49.33;24.03;;;;;;;;;;5085091;28;20219;-85
2023/03/02 09:03:42;;;;;;;48.70;24.20;;;;;;;;;;5081683;28;20209;-85
2023/03/02 09:06:09;;;;;;;44.57;23.30;;;;;;;;;;5088820;28;20197;-85
2023/03/02 09:08:35;;;;;;;45.93;23.20;;;;;;;;;;5081535;28;20437;-85
2023/03/02 09:11:02;;;;;;;44.10;23.23;;;;;;;;;;5087558;28;20221;-85
2023/03/02 09:13:29;;;;;;;47.17;23.80;;;;;;;;;;5083430;28;20252;-85
2023/03/02 09:15:58;;;;;;;46.67;22.67;;;;;;;;;;5078164;28;20229;-86
2023/03/02 09:18:24;;;;;;;44.80;23.47;;;;;;;;;;5085673;28;20313;-85
2023/03/02 09:20:51;;;;;;;45.07;23.97;;;;;;;;;;5083828;28;20208;-85
2023/03/02 09:23:18;;;;;;;41.63;22.57;;;;;;;;;;5084484;28;20206;-84
2023/03/02 09:25:46;;;;;;;42.67;22.97;;;;;;;;;;5086301;28;20189;-85
2023/03/02 09:28:13;;;;;;;47.10;23.70;;;;;;;;;;5098483;28;20204;-84
2023/03/02 09:30:40;;;;;;;47.13;23.77;;;;;;;;;;5080718;28;20224;-85
2023/03/02 09:33:08;;;;;;;42.40;23.93;;;;;;;;;;5092026;28;20290;-85
2023/03/02 09:35:34;;;;;;;42.23;22.33;;;;;;;;;;5082157;28;20213;-84
2023/03/02 09:38:01;;;;;;;41.13;22.70;;;;;;;;;;5085472;28;20205;-85
2023/03/02 09:40:29;;;;;;;42.53;22.97;;;;;;;;;;5103923;28;20238;-85
2023/03/02 09:43:12;;;;;;;46.40;24.70;;;;;;;;;;5084958;28;20207;-84
2023/03/02 09:45:51;;;;;;;46.67;23.53;;;;;;;;;;5084418;28;20296;-84
2023/03/02 09:48:24;;;;;;;46.13;24.30;;;;;;;;;;5087351;28;20198;-84
2023/03/02 09:50:56;;;;;;;43.53;23.13;;;;;;;;;;5088585;28;20250;-84
2023/03/02 09:53:36;;;;;;;45.20;23.70;;;;;;;;;;5081528;28;20310;-84
2023/03/02 09:56:03;;;;;;;45.70;23.17;;;;;;;;;;5097978;28;20236;-84
2023/03/02 09:58:34;;;;;;;46.00;23.57;;;;;;;;;;5089082;28;20211;-84
2023/03/02 10:01:03;;;;;;;44.20;22.93;;;;;;;;;;5084270;28;20300;-84
2023/03/02 10:03:35;;;;;;;42.53;24.10;;;;;;;;;;5097990;28;20193;-84
2023/03/02 10:06:02;;;;;;;43.60;22.90;;;;;;;;;;5077435;28;20217;-84
2023/03/02 10:08:30;;;;;;;38.93;23.10;;;;;;;;;;5075784;28;20205;-84
2023/03/02 10:10:59;;;;;;;41.53;23.20;;;;;;;;;;5089242;28;20263;-84
2023/03/02 10:13:28;;;;;;;37.73;21.87;;;;;;;;;;5081652;28;20220;-84
2023/03/02 10:15:59;;;;;;;40.83;23.50;;;;;;;;;;5096366;28;20221;-84
2023/03/02 10:18:30;;;;;;;45.70;23.57;;;;;;;;;;5078582;28;20211;-84
2023/03/02 10:20:59;;;;;;;42.53;21.97;;;;;;;;;;5078603;28;20208;-84
2023/03/02 10:23:31;;;;;;;40.57;22.57;;;;;;;;;;5082148;28;20197;-84
2023/03/02 10:26:01;;;;;;;39.27;21.27;;;;;;;;;;5095461;28;20229;-81
2023/03/02 10:28:32;;;;;;;44.90;23.70;;;;;;;;;;5105008;28;20235;-84
2023/03/02 10:31:06;;;;;;;38.77;21.53;;;;;;;;;;5086502;28;20208;-85
2023/03/02 10:33:35;;;;;;;43.00;23.07;;;;;;;;;;5089087;28;20289;-85
2023/03/02 10:36:05;;;;;;;39.87;21.60;;;;;;;;;;5090443;28;20206;-89
2023/03/02 10:38:32;;;;;;;41.53;21.33;;;;;;;;;;5089673;28;20200;-88
2023/03/02 10:41:00;;;;;;;38.13;21.67;;;;;;;;;;5091979;28;20207;-88
2023/03/02 10:43:30;;;;;;;41.97;22.63;;;;;;;;;;5084856;28;20226;-89
2023/03/02 10:46:01;;;;;;;37.53;21.87;;;;;;;;;;5077850;28;20200;-90
2023/03/02 10:48:27;;;;;;;42.23;23.60;;;;;;;;;;5095116;28;20208;-88
2023/03/02 10:50:55;;;;;;;42.10;23.77;;;;;;;;;;5112819;27;20211;-89
2023/03/02 10:53:23;;;;;;;38.87;22.47;;;;;;;;;;5094842;28;20265;-89
2023/03/02 10:55:51;;;;;;;40.37;22.10;;;;;;;;;;5091199;28;20209;-88
2023/03/02 10:58:24;;;;;;;38.97;22.20;;;;;;;;;;5086438;28;20246;-88
2023/03/02 11:00:58;;;;;;;39.70;21.93;;;;;;;;;;5084807;28;20219;-89
2023/03/02 11:03:24;;;;;;;39.83;23.40;;;;;;;;;;5082651;28;20249;-89
2023/03/02 11:05:51;;;;;;;39.43;22.93;;;;;;;;;;5109309;27;20197;-90
2023/03/02 11:08:19;;;;;;;38.53;22.10;;;;;;;;;;5090666;28;20201;-89
2023/03/02 11:10:52;;;;;;;43.50;21.77;;;;;;;;;;5085909;28;20212;-90
2023/03/02 11:13:22;;;;;;;35.97;21.57;;;;;;;;;;5089984;28;20229;-87
2023/03/02 11:15:50;;;;;;;40.93;21.43;;;;;;;;;;5092335;28;20265;-89
2023/03/02 11:18:23;;;;;;;39.70;22.20;;;;;;;;;;5085435;28;20217;-88
2023/03/02 11:20:51;;;;;;;38.13;23.07;;;;;;;;;;5094242;28;20272;-89
2023/03/02 11:23:21;;;;;;;36.07;21.30;;;;;;;;;;5098422;28;20233;-89
2023/03/02 11:25:51;;;;;;;35.47;21.33;;;;;;;;;;5101997;28;20208;-88
2023/03/02 11:28:25;;;;;;;38.73;22.33;;;;;;;;;;5090704;28;20247;-88
2023/03/02 11:30:53;;;;;;;38.33;22.47;;;;;;;;;;5100966;28;20228;-90
2023/03/02 11:33:22;;;;;;;36.43;20.77;;;;;;;;;;5095237;28;20225;-87
2023/03/02 11:35:52;;;;;;;41.73;24.50;;;;;;;;;;5087413;28;20296;-90
2023/03/02 11:38:22;;;;;;;38.70;21.97;;;;;;;;;;5098510;28;20246;-88
2023/03/02 11:40:51;;;;;;;38.30;22.57;;;;;;;;;;5090939;28;20200;-90
2023/03/02 11:43:18;;;;;;;38.77;22.17;;;;;;;;;;5088511;28;20201;-88
2023/03/02 11:45:48;;;;;;;36.30;21.70;;;;;;;;;;5095813;28;20220;-90
2023/03/02 11:48:18;;;;;;;36.27;21.40;;;;;;;;;;5097047;28;20299;-89
2023/03/02 11:50:49;;;;;;;39.80;21.27;;;;;;;;;;5091950;28;20337;-89
2023/03/02 11:53:19;;;;;;;37.30;21.07;;;;;;;;;;5095095;28;20254;-90
2023/03/02 11:55:48;;;;;;;39.03;22.37;;;;;;;;;;5096020;28;20212;-89
2023/03/02 11:58:25;;;;;;;33.20;20.33;;;;;;;;;;5087389;28;20223;-89
2023/03/02 12:00:57;;;;;;;36.53;22.73;;;;;;;;;;5091339;28;20216;-89
2023/03/02 12:03:36;;;;;;;33.67;20.00;;;;;;;;;;5094622;28;20222;-88
2023/03/02 12:06:04;;;;;;;35.93;22.23;;;;;;;;;;5090136;28;20276;-88
2023/03/02 12:08:34;;;;;;;37.63;21.00;;;;;;;;;;5084742;28;20200;-90
2023/03/02 12:11:02;;;;;;;40.33;21.80;;;;;;;;;;5088674;28;20211;-91
2023/03/02 12:13:30;;;;;;;41.93;23.27;;;;;;;;;;5093541;28;20235;-89
2023/03/02 12:15:58;;;;;;;35.20;20.87;;;;;;;;;;5086984;28;20219;-86
2023/03/02 12:18:30;;;;;;;40.63;22.27;;;;;;;;;;5101412;27;20201;-87
2023/03/02 12:21:04;;;;;;;36.50;20.90;;;;;;;;;;5087993;28;20457;-87
2023/03/02 12:23:32;;;;;;;38.53;21.67;;;;;;;;;;5081673;28;20200;-87
2023/03/02 12:26:04;;;;;;;36.87;20.90;;;;;;;;;;5093330;28;20201;-87
2023/03/02 12:28:32;;;;;;;37.03;22.10;;;;;;;;;;5092816;28;20237;-86
2023/03/02 12:31:05;;;;;;;37.50;22.07;;;;;;;;;;5093053;28;20286;-86
2023/03/02 12:33:32;;;;;;;38.87;21.73;;;;;;;;;;5095765;28;20222;-84
2023/03/02 12:36:10;;;;;;;38.70;21.07;;;;;;;;;;5089881;28;20204;-85
2023/03/02 12:38:38;;;;;;;38.00;21.07;;;;;;;;;;5101035;28;20215;-85
2023/03/02 12:41:19;;;;;;;36.20;20.73;;;;;;;;;;5085345;28;20201;-84
2023/03/02 12:43:55;;;;;;;37.33;21.80;;;;;;;;;;5087068;28;20229;-84
2023/03/02 12:46:28;;;;;;;39.20;21.70;;;;;;;;;;5084433;28;20205;-84
2023/03/02 12:49:11;;;;;;;37.40;21.50;;;;;;;;;;5093609;28;20212;-87
2023/03/02 12:51:49;;;;;;;38.17;21.80;;;;;;;;;;5092788;28;20217;-86
2023/03/02 12:54:17;;;;;;;38.57;22.87;;;;;;;;;;5097777;28;20232;-86
2023/03/02 12:56:44;;;;;;;36.23;21.50;;;;;;;;;;5092067;28;20204;-86
2023/03/02 12:59:19;;;;;;;36.57;21.47;;;;;;;;;;5097232;28;20339;-87
2023/03/02 13:01:47;;;;;;;37.53;21.73;;;;;;;;;;5092576;28;20231;-87
2023/03/02 13:04:20;;;;;;;37.90;21.73;;;;;;;;;;5107892;28;20245;-86
2023/03/02 13:06:47;;;;;;;34.33;20.07;;;;;;;;;;5091999;28;20239;-86
2023/03/02 13:09:15;;;;;;;38.47;22.47;;;;;;;;;;5109435;27;20254;-86
2023/03/02 13:11:42;;;;;;;40.43;21.73;;;;;;;;;;5087532;28;20205;-86
2023/03/02 13:14:18;;;;;;;36.93;20.73;;;;;;;;;;5094106;28;20221;-86
2023/03/02 13:16:53;;;;;;;33.97;21.10;;;;;;;;;;5084874;28;20234;-87
2023/03/02 13:19:21;;;;;;;36.93;21.30;;;;;;;;;;5079767;28;20261;-86
2023/03/02 13:21:48;;;;;;;35.27;21.27;;;;;;;;;;5082682;28;20211;-86
2023/03/02 13:24:29;;;;;;;33.87;20.97;;;;;;;;;;5082534;28;20209;-86
2023/03/02 13:26:57;;;;;;;33.13;19.57;;;;;;;;;;5074026;28;20322;-86
2023/03/02 13:29:25;;;;;;;35.23;20.60;;;;;;;;;;5082857;28;20205;-88
2023/03/02 13:31:55;;;;;;;34.43;20.87;;;;;;;;;;5082772;28;20205;-87
2023/03/02 13:34:24;;;;;;;34.50;21.20;;;;;;;;;;5085017;28;20220;-87
2023/03/02 13:36:52;;;;;;;35.13;21.83;;;;;;;;;;5087318;28;20267;-90
2023/03/02 13:39:20;;;;;;;35.37;22.27;;;;;;;;;;5083354;28;20299;-88
2023/03/02 13:41:52;;;;;;;38.13;22.07;;;;;;;;;;5082473;28;20208;-88
2023/03/02 13:44:20;;;;;;;181.40;146.87;;;;;;;;;;5084872;28;20243;-88
2023/03/02 13:46:47;;;;;;;37.93;21.33;;;;;;;;;;5091380;28;20287;-88
2023/03/02 13:49:14;;;;;;;33.73;19.13;;;;;;;;;;5092345;28;20213;-88
2023/03/02 13:51:43;;;;;;;35.87;20.17;;;;;;;;;;5089151;28;20201;-83
2023/03/02 13:54:16;;;;;;;34.63;20.57;;;;;;;;;;5088720;28;20221;-83
2023/03/02 13:56:43;;;;;;;34.90;19.93;;;;;;;;;;5086919;28;20243;-83
2023/03/02 13:59:12;;;;;;;34.53;18.93;;;;;;;;;;5077235;28;20299;-83
2023/03/02 14:01:40;;;;;;;34.93;19.80;;;;;;;;;;5095051;28;20210;-83
2023/03/02 14:04:06;;;;;;;37.90;20.27;;;;;;;;;;5088484;28;20204;-83
2023/03/02 14:06:33;;;;;;;34.57;20.87;;;;;;;;;;5087553;28;20287;-82
2023/03/02 14:09:01;;;;;;;34.33;20.83;;;;;;;;;;5108338;27;20204;-86
2023/03/02 14:11:30;;;;;;;34.17;20.10;;;;;;;;;;5091508;28;20213;-87
2023/03/02 14:13:57;;;;;;;35.43;21.03;;;;;;;;;;5084860;28;20213;-86
2023/03/02 14:16:24;;;;;;;38.87;21.33;;;;;;;;;;5107900;28;20230;-86
2023/03/02 14:18:52;;;;;;;34.80;20.70;;;;;;;;;;5101414;27;20288;-86
2023/03/02 14:21:19;;;;;;;36.10;20.27;;;;;;;;;;5091879;28;20238;-86
2023/03/02 14:23:46;;;;;;;35.60;20.53;;;;;;;;;;5088645;28;20203;-85